createdAt,value
2018-02-24T00:00:32.447Z,62.40
2018-02-24T00:01:32.490Z,65.60
2018-02-24T00:02:32.597Z,66.80
2018-02-24T00:03:32.753Z,66.00
2018-02-24T00:04:32.499Z,71.40
2018-02-24T00:05:31.945Z,64.30
2018-02-24T00:06:32.711Z,66.30
2018-02-24T00:07:32.166Z,63.90
2018-02-24T00:08:31.876Z,65.50
2018-02-24T00:09:31.874Z,64.70
2018-02-24T00:10:31.785Z,64.60
2018-02-24T00:11:32.477Z,66.60
2018-02-24T00:12:31.884Z,69.20
2018-02-24T00:13:33.494Z,65.30
2018-02-24T00:14:32.295Z,63.90
2018-02-24T00:15:32.371Z,64.40
2018-02-24T00:16:31.938Z,66.60
2018-02-24T00:17:32.063Z,67.70
2018-02-24T00:18:32.321Z,66.00
2018-02-24T00:19:31.610Z,66.80
2018-02-24T00:20:31.704Z,69.20
2018-02-24T00:21:31.596Z,70.30
2018-02-24T00:22:31.438Z,67.00
2018-02-24T00:23:31.286Z,66.60
2018-02-24T00:24:31.487Z,63.60
2018-02-24T00:25:31.242Z,68.00
2018-02-24T00:26:31.599Z,68.10
2018-02-24T00:27:31.566Z,69.00
2018-02-24T00:28:31.266Z,63.30
2018-02-24T00:29:30.757Z,66.10
2018-02-24T00:30:31.013Z,66.50
2018-02-24T00:31:32.485Z,65.60
2018-02-24T00:32:30.834Z,65.90
2018-02-24T00:33:30.832Z,67.40
2018-02-24T00:34:30.800Z,67.30
2018-02-24T00:35:32.432Z,62.50
2018-02-24T00:36:30.620Z,67.30
2018-02-24T00:37:30.723Z,64.70
2018-02-24T00:38:32.252Z,68.80
2018-02-24T00:39:30.385Z,65.50
2018-02-24T00:40:32.533Z,66.60
2018-02-24T00:41:30.811Z,65.60
2018-02-24T00:42:30.186Z,66.90
2018-02-24T00:43:30.166Z,67.00
2018-02-24T00:44:30.326Z,69.60
2018-02-24T00:45:35.704Z,64.90
2018-02-24T00:46:30.742Z,67.50
2018-02-24T00:47:30.100Z,68.90
2018-02-24T00:48:30.110Z,68.20
2018-02-24T00:49:30.122Z,65.10
2018-02-24T00:50:30.142Z,68.10
2018-02-24T00:51:29.832Z,64.60
2018-02-24T00:52:29.922Z,71.20
2018-02-24T00:53:30.020Z,69.80
2018-02-24T00:54:29.750Z,67.20
2018-02-24T00:55:29.461Z,66.10
2018-02-24T00:56:29.550Z,72.00
2018-02-24T00:57:29.742Z,68.70
2018-02-24T00:58:30.071Z,67.30
2018-02-24T00:59:29.329Z,70.00
2018-02-24T01:00:29.440Z,67.10
2018-02-24T01:01:29.894Z,68.20
2018-02-24T01:02:29.602Z,67.60
2018-02-24T01:03:29.202Z,65.60
2018-02-24T01:04:29.586Z,66.50
2018-02-24T01:05:29.354Z,67.20
2018-02-24T01:06:29.077Z,69.50
2018-02-24T01:07:29.131Z,64.90
2018-02-24T01:08:29.119Z,69.10
2018-02-24T01:09:28.850Z,65.40
2018-02-24T01:10:30.406Z,66.70
2018-02-24T01:11:28.935Z,70.10
2018-02-24T01:12:29.463Z,67.60
2018-02-24T01:13:28.659Z,66.20
2018-02-24T01:14:28.661Z,69.00
2018-02-24T01:15:28.620Z,65.00
2018-02-24T01:16:29.098Z,66.70
2018-02-24T01:17:28.838Z,67.30
2018-02-24T01:18:28.352Z,67.20
2018-02-24T01:19:28.360Z,67.80
2018-02-24T01:20:28.828Z,66.90
2018-02-24T01:21:28.721Z,74.70
2018-02-24T01:22:28.190Z,70.40
2018-02-24T01:23:28.466Z,68.20
2018-02-24T01:24:28.118Z,70.60
2018-02-24T01:25:28.278Z,66.70
2018-02-24T01:26:27.927Z,69.80
2018-02-24T01:27:27.906Z,70.30
2018-02-24T01:28:27.934Z,70.80
2018-02-24T01:29:28.568Z,68.50
2018-02-24T01:30:28.150Z,71.00
2018-02-24T01:31:27.712Z,63.30
2018-02-24T01:32:28.617Z,68.50
2018-02-24T01:33:27.789Z,72.00
2018-02-24T01:34:28.090Z,72.90
2018-02-24T01:35:27.700Z,69.10
2018-02-24T01:36:27.261Z,74.00
2018-02-24T01:37:27.538Z,71.10
2018-02-24T01:38:28.146Z,66.20
2018-02-24T01:39:27.869Z,68.20
2018-02-24T01:40:27.371Z,69.50
2018-02-24T01:41:28.883Z,69.30
2018-02-24T01:42:28.639Z,71.30
2018-02-24T01:43:27.737Z,71.30
2018-02-24T01:44:26.998Z,72.90
2018-02-24T01:45:28.001Z,70.30
2018-02-24T01:46:27.586Z,70.80
2018-02-24T01:47:27.568Z,67.70
2018-02-24T01:48:29.397Z,69.00
2018-02-24T01:49:27.280Z,70.20
2018-02-24T01:50:27.093Z,71.50
2018-02-24T01:51:26.922Z,69.10
2018-02-24T01:52:27.691Z,72.70
2018-02-24T01:53:32.184Z,69.70
2018-02-24T01:54:26.566Z,69.40
2018-02-24T01:55:26.638Z,69.70
2018-02-24T01:56:26.445Z,71.00
2018-02-24T01:57:27.104Z,69.20
2018-02-24T01:58:27.067Z,69.50
2018-02-24T01:59:26.271Z,70.00
2018-02-24T02:00:26.252Z,69.50
2018-02-24T02:01:27.163Z,69.70
2018-02-24T02:02:26.038Z,69.80
2018-02-24T02:03:26.532Z,71.10
2018-02-24T02:04:26.157Z,68.80
2018-02-24T02:05:26.008Z,70.20
2018-02-24T02:06:26.251Z,70.00
2018-02-24T02:07:34.233Z,71.80
2018-02-24T02:08:26.113Z,69.50
2018-02-24T02:09:25.697Z,71.70
2018-02-24T02:10:25.742Z,71.90
2018-02-24T02:11:25.592Z,67.00
2018-02-24T02:12:25.700Z,69.80
2018-02-24T02:13:25.773Z,68.50
2018-02-24T02:14:25.411Z,70.50
2018-02-24T02:15:25.423Z,69.70
2018-02-24T02:16:26.109Z,71.00
2018-02-24T02:17:25.360Z,68.80
2018-02-24T02:18:25.693Z,68.30
2018-02-24T02:19:25.322Z,68.80
2018-02-24T02:20:25.144Z,74.00
2018-02-24T02:21:25.256Z,73.60
2018-02-24T02:22:25.847Z,71.50
2018-02-24T02:23:25.193Z,72.90
2018-02-24T02:24:25.209Z,72.70
2018-02-24T02:25:25.164Z,72.00
2018-02-24T02:26:25.117Z,72.70
2018-02-24T02:27:25.570Z,73.60
2018-02-24T02:28:25.040Z,73.40
2018-02-24T02:29:24.719Z,69.00
2018-02-24T02:30:24.647Z,71.20
2018-02-24T02:31:24.684Z,71.30
2018-02-24T02:32:24.934Z,71.50
2018-02-24T02:33:24.639Z,72.80
2018-02-24T02:34:35.344Z,69.40
2018-02-24T02:35:25.329Z,70.80
2018-02-24T02:36:24.253Z,72.60
2018-02-24T02:37:24.494Z,72.50
2018-02-24T02:38:24.419Z,68.90
2018-02-24T02:39:24.241Z,70.70
2018-02-24T02:40:24.539Z,71.80
2018-02-24T02:41:24.273Z,74.40
2018-02-24T02:42:24.566Z,71.40
2018-02-24T02:43:24.723Z,71.90
2018-02-24T02:44:28.897Z,70.30
2018-02-24T02:45:23.850Z,73.90
2018-02-24T02:46:24.664Z,75.20
2018-02-24T02:47:24.574Z,73.80
2018-02-24T02:48:24.315Z,70.40
2018-02-24T02:49:23.764Z,72.20
2018-02-24T02:50:24.204Z,71.30
2018-02-24T02:51:24.611Z,69.50
2018-02-24T02:52:23.565Z,72.30
2018-02-24T02:53:23.524Z,73.90
2018-02-24T02:54:23.433Z,71.90
2018-02-24T02:55:23.425Z,74.60
2018-02-24T02:56:23.274Z,70.00
2018-02-24T02:57:24.068Z,72.70
2018-02-24T02:58:23.284Z,70.40
2018-02-24T02:59:30.077Z,71.20
2018-02-24T03:00:23.254Z,75.40
2018-02-24T03:01:23.928Z,70.80
2018-02-24T03:02:23.442Z,71.30
2018-02-24T03:03:22.958Z,71.80
2018-02-24T03:04:23.073Z,69.20
2018-02-24T03:05:24.993Z,73.30
2018-02-24T03:06:23.083Z,70.10
2018-02-24T03:07:23.577Z,75.50
2018-02-24T03:08:22.760Z,72.30
2018-02-24T03:09:27.630Z,73.30
2018-02-24T03:10:23.075Z,73.70
2018-02-24T03:11:23.075Z,71.40
2018-02-24T03:12:23.118Z,72.10
2018-02-24T03:13:22.578Z,73.90
2018-02-24T03:14:22.492Z,71.20
2018-02-24T03:15:22.445Z,72.50
2018-02-24T03:16:23.289Z,69.60
2018-02-24T03:17:22.357Z,73.90
2018-02-24T03:18:23.029Z,73.00
2018-02-24T03:19:22.660Z,68.40
2018-02-24T03:20:29.355Z,72.50
2018-02-24T03:21:43.667Z,72.90
2018-02-24T03:22:22.664Z,74.20
2018-02-24T03:23:22.183Z,75.20
2018-02-24T03:24:22.598Z,69.80
2018-02-24T03:25:21.976Z,72.70
2018-02-24T03:26:24.599Z,74.70
2018-02-24T03:27:23.748Z,74.40
2018-02-24T03:28:21.834Z,74.70
2018-02-24T03:29:21.746Z,76.70
2018-02-24T03:30:22.844Z,73.20
2018-02-24T03:31:21.783Z,71.50
2018-02-24T03:32:21.799Z,73.60
2018-02-24T03:33:21.522Z,76.40
2018-02-24T03:34:21.636Z,70.10
2018-02-24T03:35:21.420Z,70.20
2018-02-24T03:36:22.150Z,72.40
2018-02-24T03:37:21.291Z,74.40
2018-02-24T03:38:21.493Z,73.10
2018-02-24T03:39:21.546Z,71.30
2018-02-24T03:40:21.870Z,70.30
2018-02-24T03:41:23.635Z,73.40
2018-02-24T03:42:21.507Z,72.00
2018-02-24T03:43:21.091Z,70.50
2018-02-24T03:44:21.145Z,71.40
2018-02-24T03:45:20.870Z,74.20
2018-02-24T03:46:20.958Z,74.60
2018-02-24T03:47:21.150Z,73.40
2018-02-24T03:48:20.903Z,72.70
2018-02-24T03:49:20.780Z,70.10
2018-02-24T03:50:21.110Z,72.00
2018-02-24T03:51:20.702Z,76.90
2018-02-24T03:52:21.155Z,73.60
2018-02-24T03:53:20.710Z,73.70
2018-02-24T03:54:20.352Z,71.60
2018-02-24T03:55:21.078Z,72.30
2018-02-24T03:56:20.234Z,71.80
2018-02-24T03:57:20.366Z,76.80
2018-02-24T03:58:20.362Z,77.30
2018-02-24T03:59:21.307Z,76.00
2018-02-24T04:00:21.370Z,75.40
2018-02-24T04:01:20.171Z,74.00
2018-02-24T04:02:19.900Z,75.90
2018-02-24T04:03:20.579Z,74.70
2018-02-24T04:04:20.198Z,76.40
2018-02-24T04:05:20.286Z,76.60
2018-02-24T04:06:19.943Z,75.60
2018-02-24T04:07:20.242Z,77.90
2018-02-24T04:08:19.814Z,78.90
2018-02-24T04:09:19.857Z,74.00
2018-02-24T04:10:19.651Z,75.20
2018-02-24T04:11:19.746Z,77.20
2018-02-24T04:12:20.082Z,75.30
2018-02-24T04:13:19.588Z,75.10
2018-02-24T04:14:20.133Z,77.00
2018-02-24T04:15:19.553Z,75.70
2018-02-24T04:16:19.343Z,75.60
2018-02-24T04:17:19.715Z,73.60
2018-02-24T04:18:21.034Z,75.60
2018-02-24T04:19:19.480Z,76.90
2018-02-24T04:20:19.614Z,77.30
2018-02-24T04:21:19.362Z,77.50
2018-02-24T04:22:19.036Z,78.60
2018-02-24T04:23:19.679Z,76.30
2018-02-24T04:24:19.337Z,76.40
2018-02-24T04:25:18.853Z,74.20
2018-02-24T04:26:19.034Z,73.90
2018-02-24T04:27:19.003Z,75.20
2018-02-24T04:28:19.188Z,74.40
2018-02-24T04:29:21.746Z,75.60
2018-02-24T04:30:18.878Z,72.70
2018-02-24T04:31:19.077Z,75.60
2018-02-24T04:32:18.779Z,75.40
2018-02-24T04:33:18.544Z,72.60
2018-02-24T04:34:18.508Z,72.50
2018-02-24T04:35:18.385Z,76.30
2018-02-24T04:36:18.474Z,80.90
2018-02-24T04:37:22.364Z,78.30
2018-02-24T04:38:18.558Z,76.20
2018-02-24T04:39:18.284Z,76.80
2018-02-24T04:40:18.607Z,79.80
2018-02-24T04:41:18.228Z,80.00
2018-02-24T04:42:18.173Z,78.70
2018-02-24T04:43:30.211Z,75.80
2018-02-24T04:44:18.661Z,76.50
2018-02-24T04:45:17.984Z,78.30
2018-02-24T04:46:17.842Z,79.50
2018-02-24T04:47:18.329Z,77.90
2018-02-24T04:48:49.030Z,76.70
2018-02-24T04:50:20.817Z,75.70
2018-02-24T04:53:39.727Z,80.10
2018-02-24T05:00:08.782Z,78.90
2018-02-24T05:01:08.357Z,79.20
2018-02-24T05:03:24.611Z,74.50
2018-02-24T05:07:35.886Z,76.90
2018-02-24T05:08:34.714Z,80.70
2018-02-24T05:11:37.830Z,76.00
2018-02-24T05:12:37.713Z,77.40
2018-02-24T05:14:44.051Z,79.40
2018-02-24T05:15:44.237Z,81.90
2018-02-24T05:18:15.031Z,84.20
2018-02-24T05:19:15.254Z,88.60
2018-02-24T05:21:53.189Z,83.10
2018-02-24T05:22:17.506Z,78.20
2018-02-24T05:23:17.583Z,85.30
2018-02-24T05:24:17.456Z,77.60
2018-02-24T05:25:17.564Z,77.30
2018-02-24T05:26:17.155Z,80.30
2018-02-24T05:27:17.445Z,79.20
2018-02-24T05:28:17.049Z,72.90
2018-02-24T05:29:19.024Z,76.30
2018-02-24T05:30:17.105Z,81.60
2018-02-24T05:31:16.973Z,81.00
2018-02-24T05:32:16.999Z,81.30
2018-02-24T05:33:16.892Z,80.30
2018-02-24T05:34:16.921Z,81.80
2018-02-24T05:35:16.658Z,80.20
2018-02-24T05:36:16.673Z,82.50
2018-02-24T05:37:15.337Z,83.50
2018-02-24T05:38:15.418Z,78.90
2018-02-24T05:39:14.681Z,75.70
2018-02-24T05:40:16.634Z,70.90
2018-02-24T05:41:14.878Z,81.70
2018-02-24T05:42:14.858Z,80.90
2018-02-24T05:43:14.984Z,80.50
2018-02-24T05:44:14.269Z,82.00
2018-02-24T05:45:14.691Z,74.50
2018-02-24T05:46:14.884Z,77.50
2018-02-24T05:47:14.136Z,75.60
2018-02-24T05:48:13.966Z,77.90
2018-02-24T05:49:14.800Z,80.10
2018-02-24T05:50:14.309Z,79.20
2018-02-24T05:51:14.359Z,77.50
2018-02-24T05:52:14.057Z,83.10
2018-02-24T05:53:14.249Z,79.80
2018-02-24T05:54:14.400Z,78.70
2018-02-24T05:55:13.986Z,78.30
2018-02-24T05:56:13.833Z,80.00
2018-02-24T05:57:13.830Z,81.10
2018-02-24T05:58:14.220Z,77.60
2018-02-24T05:59:13.664Z,81.30
2018-02-24T06:00:13.600Z,81.90
2018-02-24T06:01:13.461Z,78.40
2018-02-24T06:02:13.255Z,78.90
2018-02-24T06:03:14.130Z,77.90
2018-02-24T06:04:13.545Z,80.30
2018-02-24T06:05:13.130Z,75.50
2018-02-24T06:06:13.259Z,79.10
2018-02-24T06:07:12.975Z,79.90
2018-02-24T06:08:13.065Z,77.60
2018-02-24T06:09:13.059Z,75.50
2018-02-24T06:10:13.051Z,75.00
2018-02-24T06:11:13.080Z,84.40
2018-02-24T06:12:19.677Z,77.70
2018-02-24T06:13:12.757Z,78.30
2018-02-24T06:14:13.208Z,82.10
2018-02-24T06:15:12.828Z,83.50
2018-02-24T06:16:13.278Z,84.50
2018-02-24T06:17:12.414Z,83.60
2018-02-24T06:18:12.770Z,81.50
2018-02-24T06:19:12.808Z,81.40
2018-02-24T06:20:12.599Z,83.70
2018-02-24T06:21:12.573Z,79.90
2018-02-24T06:22:12.971Z,85.30
2018-02-24T06:23:12.330Z,84.70
2018-02-24T06:24:12.361Z,86.90
2018-02-24T06:25:12.685Z,86.20
2018-02-24T06:26:12.685Z,86.50
2018-02-24T06:27:12.258Z,83.60
2018-02-24T06:28:12.154Z,80.20
2018-02-24T06:29:11.733Z,88.00
2018-02-24T06:30:12.376Z,89.60
2018-02-24T06:31:12.702Z,85.90
2018-02-24T06:32:11.889Z,90.30
2018-02-24T06:33:11.597Z,92.40
2018-02-24T06:34:11.672Z,95.80
2018-02-24T06:35:12.035Z,93.50
2018-02-24T06:36:12.185Z,95.00
2018-02-24T06:37:11.585Z,98.10
2018-02-24T06:38:11.933Z,98.90
2018-02-24T06:39:11.357Z,95.50
2018-02-24T06:40:11.268Z,92.90
2018-02-24T06:41:11.402Z,89.30
2018-02-24T06:42:11.235Z,93.80
2018-02-24T06:43:11.666Z,93.30
2018-02-24T06:44:11.193Z,91.80
2018-02-24T06:45:11.688Z,98.80
2018-02-24T06:46:11.724Z,91.50
2018-02-24T06:47:10.948Z,95.10
2018-02-24T06:48:10.839Z,90.20
2018-02-24T06:49:10.847Z,86.30
2018-02-24T06:50:10.785Z,90.40
2018-02-24T06:51:10.732Z,85.80
2018-02-24T06:52:10.522Z,87.40
2018-02-24T06:53:10.526Z,88.40
2018-02-24T06:54:10.698Z,82.30
2018-02-24T06:55:10.595Z,80.20
2018-02-24T06:56:11.196Z,84.00
2018-02-24T06:57:10.780Z,82.50
2018-02-24T06:58:10.748Z,82.20
2018-02-24T06:59:10.443Z,85.40
2018-02-24T07:00:11.188Z,83.80
2018-02-24T07:01:10.369Z,84.00
2018-02-24T07:02:12.309Z,80.90
2018-02-24T07:03:10.022Z,78.60
2018-02-24T07:04:10.717Z,79.50
2018-02-24T07:05:10.095Z,82.80
2018-02-24T07:06:10.201Z,79.60
2018-02-24T07:07:10.337Z,79.20
2018-02-24T07:08:09.781Z,80.20
2018-02-24T07:09:12.676Z,81.20
2018-02-24T07:10:09.731Z,80.90
2018-02-24T07:11:09.974Z,82.80
2018-02-24T07:12:09.585Z,79.60
2018-02-24T07:13:09.665Z,81.40
2018-02-24T07:14:09.454Z,85.20
2018-02-24T07:15:09.314Z,81.60
2018-02-24T07:16:09.417Z,82.30
2018-02-24T07:17:09.280Z,80.80
2018-02-24T07:18:09.799Z,80.10
2018-02-24T07:19:09.828Z,82.90
2018-02-24T07:20:09.357Z,83.30
2018-02-24T07:21:09.066Z,85.70
2018-02-24T07:22:09.495Z,85.80
2018-02-24T07:23:09.003Z,83.00
2018-02-24T07:24:09.040Z,80.80
2018-02-24T07:25:09.009Z,79.40
2018-02-24T07:26:09.027Z,89.40
2018-02-24T07:27:08.811Z,89.00
2018-02-24T07:28:09.313Z,84.20
2018-02-24T07:29:08.862Z,87.50
2018-02-24T07:30:09.299Z,92.50
2018-02-24T07:31:08.622Z,89.20
2018-02-24T07:32:09.056Z,85.00
2018-02-24T07:33:08.632Z,90.30
2018-02-24T07:34:08.409Z,82.00
2018-02-24T07:35:08.639Z,88.90
2018-02-24T07:36:08.580Z,89.30
2018-02-24T07:37:08.493Z,80.50
2018-02-24T07:38:08.355Z,81.60
2018-02-24T07:39:08.403Z,79.70
2018-02-24T07:40:08.426Z,77.00
2018-02-24T07:41:08.113Z,72.40
2018-02-24T07:42:08.322Z,75.50
2018-02-24T07:43:08.511Z,66.60
2018-02-24T07:44:07.950Z,66.90
2018-02-24T07:45:08.698Z,65.30
2018-02-24T07:46:08.699Z,66.60
2018-02-24T07:47:08.189Z,63.20
2018-02-24T07:48:07.770Z,62.40
2018-02-24T07:49:08.222Z,61.00
2018-02-24T07:50:07.832Z,59.00
2018-02-24T07:51:07.776Z,61.70
2018-02-24T07:52:08.199Z,57.70
2018-02-24T07:53:07.913Z,58.90
2018-02-24T07:54:07.539Z,56.40
2018-02-24T07:55:07.773Z,61.10
2018-02-24T07:56:07.675Z,58.60
2018-02-24T07:57:07.549Z,58.10
2018-02-24T07:58:07.336Z,56.40
2018-02-24T07:59:08.191Z,57.20
2018-02-24T08:00:09.107Z,57.40
2018-02-24T08:01:07.298Z,58.10
2018-02-24T08:02:07.372Z,54.60
2018-02-24T08:03:07.436Z,53.60
2018-02-24T08:04:07.692Z,53.60
2018-02-24T08:05:07.200Z,54.10
2018-02-24T08:06:09.993Z,53.80
2018-02-24T08:07:06.964Z,58.60
2018-02-24T08:08:06.964Z,54.20
2018-02-24T08:09:07.703Z,52.20
2018-02-24T08:10:06.871Z,54.30
2018-02-24T08:11:07.085Z,52.20
2018-02-24T08:12:06.751Z,52.60
2018-02-24T08:13:08.563Z,52.50
2018-02-24T08:14:08.571Z,53.40
2018-02-24T08:15:06.966Z,50.70
2018-02-24T08:16:06.589Z,51.00
2018-02-24T08:17:06.672Z,49.00
2018-02-24T08:18:09.677Z,50.50
2018-02-24T08:19:06.793Z,47.60
2018-02-24T08:20:06.390Z,47.70
2018-02-24T08:21:06.339Z,48.90
2018-02-24T08:22:06.322Z,46.70
2018-02-24T08:23:06.367Z,48.00
2018-02-24T08:24:07.925Z,47.50
2018-02-24T08:25:06.146Z,44.40
2018-02-24T08:26:06.123Z,46.40
2018-02-24T08:27:06.224Z,43.60
2018-02-24T08:28:06.008Z,44.60
2018-02-24T08:29:05.959Z,48.40
2018-02-24T08:30:06.257Z,46.30
2018-02-24T08:31:05.852Z,46.10
2018-02-24T08:32:05.852Z,44.60
2018-02-24T08:33:06.024Z,43.10
2018-02-24T08:34:05.994Z,44.90
2018-02-24T08:35:05.782Z,46.20
2018-02-24T08:36:06.013Z,49.00
2018-02-24T08:37:05.729Z,45.30
2018-02-24T08:38:05.582Z,45.40
2018-02-24T08:39:06.210Z,46.80
2018-02-24T08:40:05.686Z,43.60
2018-02-24T08:41:05.760Z,46.70
2018-02-24T08:42:05.529Z,41.80
2018-02-24T08:43:06.202Z,41.40
2018-02-24T08:44:05.833Z,40.30
2018-02-24T08:45:05.468Z,42.60
2018-02-24T08:46:05.557Z,40.40
2018-02-24T08:47:05.709Z,40.80
2018-02-24T08:48:05.114Z,43.90
2018-02-24T08:49:05.259Z,41.80
2018-02-24T08:50:05.147Z,41.40
2018-02-24T08:51:05.748Z,40.60
2018-02-24T08:52:05.207Z,40.30
2018-02-24T08:53:05.193Z,43.10
2018-02-24T08:54:04.987Z,44.80
2018-02-24T08:55:05.115Z,42.20
2018-02-24T08:56:05.704Z,43.40
2018-02-24T08:57:05.026Z,43.80
2018-02-24T08:58:04.976Z,44.40
2018-02-24T08:59:04.713Z,43.60
2018-02-24T09:00:04.950Z,40.80
2018-02-24T09:01:04.735Z,42.70
2018-02-24T09:02:04.557Z,43.10
2018-02-24T09:03:06.450Z,42.80
2018-02-24T09:04:05.205Z,41.20
2018-02-24T09:05:04.426Z,40.70
2018-02-24T09:06:04.538Z,39.30
2018-02-24T09:07:05.208Z,41.10
2018-02-24T09:08:04.386Z,39.40
2018-02-24T09:09:04.501Z,40.60
2018-02-24T09:10:04.157Z,42.80
2018-02-24T09:11:04.366Z,42.90
2018-02-24T09:12:04.317Z,41.00
2018-02-24T09:13:04.288Z,43.10
2018-02-24T09:15:41.744Z,40.80
2018-02-24T09:18:34.967Z,40.90
2018-02-24T09:19:34.694Z,40.00
2018-02-24T09:21:27.643Z,40.70
2018-02-24T09:22:27.533Z,41.00
2018-02-24T09:24:21.090Z,42.40
2018-02-24T09:25:21.087Z,40.50
2018-02-24T09:27:15.858Z,41.80
2018-02-24T09:28:15.568Z,41.70
2018-02-24T09:30:09.881Z,38.80
2018-02-24T09:31:09.873Z,39.90
2018-02-24T09:33:24.961Z,40.10
2018-02-24T09:34:24.554Z,38.40
2018-02-24T09:36:18.016Z,44.00
2018-02-24T09:37:18.018Z,40.50
2018-02-24T09:39:22.855Z,41.30
2018-02-24T09:40:22.730Z,38.60
2018-02-24T09:42:17.969Z,43.40
2018-02-24T09:43:17.905Z,40.60
2018-02-24T09:45:12.248Z,37.40
2018-02-24T09:46:12.155Z,38.50
2018-02-24T09:48:06.080Z,38.30
2018-02-24T09:49:05.878Z,37.90
2018-02-24T09:50:59.350Z,35.60
2018-02-24T09:51:58.990Z,40.40
2018-02-24T09:53:55.353Z,39.50
2018-02-24T09:56:47.956Z,37.20
2018-02-24T09:57:47.964Z,35.20
2018-02-24T09:59:42.336Z,35.20
2018-02-24T10:00:42.298Z,37.40
2018-02-24T10:02:35.404Z,36.90
2018-02-24T10:03:35.203Z,36.50
2018-02-24T10:05:28.547Z,37.70
2018-02-24T10:06:28.296Z,39.10
2018-02-24T10:08:21.709Z,36.70
2018-02-24T10:09:21.266Z,36.00
2018-02-24T10:11:14.354Z,36.30
2018-02-24T10:12:13.885Z,37.80
2018-02-24T10:14:07.684Z,35.30
2018-02-24T10:15:07.299Z,36.70
2018-02-24T10:17:00.615Z,36.80
2018-02-24T10:18:00.374Z,35.80
2018-02-24T10:19:54.144Z,35.80
2018-02-24T10:20:53.962Z,35.40
2018-02-24T10:22:47.456Z,32.80
2018-02-24T10:23:46.992Z,32.60
2018-02-24T10:25:40.217Z,31.60
2018-02-24T10:26:40.261Z,33.40
2018-02-24T10:28:33.341Z,32.30
2018-02-24T10:29:33.783Z,31.60
2018-02-24T10:30:32.879Z,35.00
2018-02-24T10:32:27.105Z,33.60
2018-02-24T10:33:27.149Z,34.70
2018-02-24T10:35:21.525Z,31.80
2018-02-24T10:36:21.551Z,28.60
2018-02-24T10:38:16.393Z,27.10
2018-02-24T10:39:16.352Z,31.40
2018-02-24T10:42:09.655Z,30.30
2018-02-24T10:44:04.122Z,30.20
2018-02-24T10:45:04.044Z,29.00
2018-02-24T10:47:00.760Z,31.40
2018-02-24T10:49:56.657Z,29.60
2018-02-24T10:52:53.108Z,25.40
2018-02-24T10:55:47.665Z,26.30
2018-02-24T10:56:46.931Z,23.80
2018-02-24T10:58:39.834Z,25.30
2018-02-24T10:59:39.809Z,25.20
2018-02-24T11:01:49.079Z,26.20
2018-02-24T11:02:48.821Z,25.50
2018-02-24T11:04:42.319Z,25.60
2018-02-24T11:05:41.880Z,26.90
2018-02-24T11:08:35.864Z,22.50
2018-02-24T11:10:28.885Z,22.20
2018-02-24T11:11:29.122Z,21.60
2018-02-24T11:13:23.424Z,20.40
2018-02-24T11:14:23.546Z,22.60
2018-02-24T11:16:24.347Z,23.00
2018-02-24T11:17:23.928Z,20.10
2018-02-24T11:19:16.997Z,20.90
2018-02-24T11:20:16.967Z,22.30
2018-02-24T11:22:10.214Z,19.80
2018-02-24T11:23:09.885Z,19.50
2018-02-24T11:25:03.180Z,21.20
2018-02-24T11:26:02.986Z,19.40
2018-02-24T11:27:02.831Z,20.80
2018-02-24T11:28:02.826Z,19.30
2018-02-24T11:29:02.935Z,20.80
2018-02-24T11:30:02.411Z,21.70
2018-02-24T11:31:02.664Z,20.50
2018-02-24T11:32:02.637Z,21.00
2018-02-24T11:33:02.676Z,18.10
2018-02-24T11:34:02.496Z,17.70
2018-02-24T11:35:02.652Z,18.80
2018-02-24T11:36:02.752Z,17.40
2018-02-24T11:37:01.309Z,18.80
2018-02-24T11:38:00.624Z,19.20
2018-02-24T11:39:00.462Z,28.90
2018-02-24T11:40:00.384Z,34.30
2018-02-24T11:41:02.212Z,20.60
2018-02-24T11:42:00.915Z,17.80
2018-02-24T11:43:00.159Z,15.20
2018-02-24T11:44:00.245Z,16.10
2018-02-24T11:45:00.665Z,12.70
2018-02-24T11:46:01.344Z,12.70
2018-02-24T11:46:59.962Z,13.70
2018-02-24T11:47:59.763Z,12.50
2018-02-24T11:48:59.809Z,12.20
2018-02-24T11:49:59.720Z,11.80
2018-02-24T11:51:00.430Z,12.80
2018-02-24T11:52:01.778Z,9.90
2018-02-24T11:52:59.657Z,11.90
2018-02-24T11:54:00.414Z,10.80
2018-02-24T11:54:59.570Z,9.20
2018-02-24T11:55:59.480Z,7.90
2018-02-24T11:56:59.504Z,8.90
2018-02-24T11:57:59.411Z,7.60
2018-02-24T11:59:00.534Z,10.10
2018-02-24T11:59:59.614Z,8.90
2018-02-24T12:00:59.451Z,7.40
2018-02-24T12:01:59.249Z,8.00
2018-02-24T12:03:01.932Z,8.60
2018-02-24T12:04:01.038Z,7.90
2018-02-24T12:04:59.384Z,7.10
2018-02-24T12:05:59.965Z,7.30
2018-02-24T12:06:59.359Z,7.40
2018-02-24T12:07:59.234Z,7.10
2018-02-24T12:08:59.092Z,6.90
2018-02-24T12:09:59.015Z,7.40
2018-02-24T12:10:59.424Z,6.90
2018-02-24T12:11:59.017Z,8.80
2018-02-24T12:12:58.971Z,8.60
2018-02-24T12:13:58.933Z,8.40
2018-02-24T12:14:58.749Z,6.90
2018-02-24T12:16:04.722Z,11.20
2018-02-24T12:16:58.847Z,8.00
2018-02-24T12:17:58.861Z,7.60
2018-02-24T12:18:58.759Z,6.70
2018-02-24T12:19:58.615Z,7.50
2018-02-24T12:20:58.604Z,6.90
2018-02-24T12:21:59.612Z,9.60
2018-02-24T12:22:58.482Z,7.90
2018-02-24T12:23:58.597Z,7.30
2018-02-24T12:24:58.986Z,8.30
2018-02-24T12:25:58.944Z,8.00
2018-02-24T12:26:58.922Z,7.70
2018-02-24T12:27:58.284Z,9.10
2018-02-24T12:28:58.426Z,8.40
2018-02-24T12:29:58.447Z,9.30
2018-02-24T12:30:58.924Z,6.80
2018-02-24T12:31:58.923Z,7.50
2018-02-24T12:32:58.095Z,8.80
2018-02-24T12:33:58.366Z,8.10
2018-02-24T12:34:58.043Z,7.10
2018-02-24T12:35:58.054Z,6.40
2018-02-24T12:36:57.968Z,6.70
2018-02-24T12:37:57.988Z,6.10
2018-02-24T12:38:58.442Z,7.50
2018-02-24T12:39:57.978Z,7.00
2018-02-24T12:40:57.986Z,7.80
2018-02-24T12:41:58.034Z,8.70
2018-02-24T12:42:57.771Z,6.60
2018-02-24T12:43:57.921Z,6.00
2018-02-24T12:44:57.886Z,7.80
2018-02-24T12:45:57.853Z,7.80
2018-02-24T12:46:58.437Z,6.20
2018-02-24T12:47:57.807Z,7.20
2018-02-24T12:48:57.792Z,7.00
2018-02-24T12:49:57.553Z,6.60
2018-02-24T12:50:57.761Z,7.70
2018-02-24T12:51:57.433Z,6.90
2018-02-24T12:52:57.446Z,6.10
2018-02-24T12:53:57.359Z,7.70
2018-02-24T12:54:57.322Z,6.60
2018-02-24T12:55:57.933Z,7.30
2018-02-24T12:56:57.379Z,7.10
2018-02-24T12:57:57.260Z,6.70
2018-02-24T12:58:57.195Z,6.80
2018-02-24T12:59:57.528Z,6.60
2018-02-24T13:00:57.114Z,7.80
2018-02-24T13:01:57.261Z,6.60
2018-02-24T13:02:57.104Z,6.60
2018-02-24T13:03:57.305Z,7.60
2018-02-24T13:04:57.029Z,7.10
2018-02-24T13:05:56.952Z,7.20
2018-02-24T13:06:56.960Z,7.60
2018-02-24T13:07:57.043Z,9.00
2018-02-24T13:08:57.023Z,7.60
2018-02-24T13:09:56.963Z,7.50
2018-02-24T13:10:56.881Z,8.50
2018-02-24T13:11:57.463Z,8.60
2018-02-24T13:12:56.893Z,7.50
2018-02-24T13:13:56.665Z,8.80
2018-02-24T13:14:56.647Z,11.90
2018-02-24T13:15:56.782Z,12.20
2018-02-24T13:16:56.576Z,10.80
2018-02-24T13:17:56.508Z,11.80
2018-02-24T13:18:56.578Z,7.20
2018-02-24T13:19:57.469Z,6.10
2018-02-24T13:20:56.613Z,6.80
2018-02-24T13:21:56.440Z,6.20
2018-02-24T13:22:56.393Z,6.20
2018-02-24T13:23:56.947Z,5.80
2018-02-24T13:24:56.940Z,5.70
2018-02-24T13:25:56.350Z,5.50
2018-02-24T13:26:56.193Z,5.40
2018-02-24T13:27:56.948Z,5.50
2018-02-24T13:28:56.409Z,5.70
2018-02-24T13:29:56.103Z,4.70
2018-02-24T13:30:56.080Z,5.40
2018-02-24T13:31:56.058Z,5.10
2018-02-24T13:32:56.008Z,5.90
2018-02-24T13:33:55.955Z,4.40
2018-02-24T13:34:56.066Z,5.60
2018-02-24T13:35:55.940Z,7.40
2018-02-24T13:36:55.898Z,4.60
2018-02-24T13:37:55.810Z,4.70
2018-02-24T13:38:55.777Z,5.30
2018-02-24T13:39:55.868Z,5.00
2018-02-24T13:40:55.723Z,4.40
2018-02-24T13:41:56.469Z,3.50
2018-02-24T13:42:56.449Z,3.10
2018-02-24T13:43:55.593Z,3.60
2018-02-24T13:44:55.615Z,6.30
2018-02-24T13:45:55.564Z,3.80
2018-02-24T13:46:55.693Z,3.80
2018-02-24T13:47:55.570Z,3.20
2018-02-24T13:48:55.443Z,2.80
2018-02-24T13:49:55.389Z,4.50
2018-02-24T13:50:55.478Z,5.20
2018-02-24T13:51:55.374Z,5.30
2018-02-24T13:52:55.357Z,4.50
2018-02-24T13:53:55.491Z,3.70
2018-02-24T13:54:55.390Z,11.40
2018-02-24T13:55:55.160Z,10.50
2018-02-24T13:56:55.262Z,14.00
2018-02-24T13:57:55.270Z,5.80
2018-02-24T13:58:55.200Z,10.10
2018-02-24T13:59:55.046Z,9.80
2018-02-24T14:00:54.996Z,5.00
2018-02-24T14:01:55.020Z,3.80
2018-02-24T14:02:55.008Z,6.10
2018-02-24T14:03:54.910Z,8.60